Time,TemperatureF,DewpointF,PressureIn,WindDirection,WindDirectionDegrees,WindSpeedMPH,WindSpeedGustMPH,Humidity,HourlyPrecipIn,Conditions,Clouds,dailyrainin,SoftwareType,DateUTC
2013-01-06 00:00:00,32.6,25.6,30.21,West,278,0.0,0.0,75,0.00,,---,0.00,VWS V13.01,2013-01-06 05:00:00,
2013-01-06 00:01:00,32.6,25.6,30.21,West,278,0.0,0.0,75,0.00,,---,0.00,VWS V13.01,2013-01-06 05:01:00,
2013-01-06 00:02:00,32.6,25.6,30.22,West,278,0.0,1.0,75,0.00,,---,0.00,VWS V13.01,2013-01-06 05:02:00,
2013-01-06 00:03:00,32.7,25.7,30.22,West,278,2.0,3.0,75,0.00,,---,0.00,VWS V13.01,2013-01-06 05:03:00,
2013-01-06 00:04:00,32.7,25.7,30.22,West,278,1.0,3.0,75,0.00,,---,0.00,VWS V13.01,2013-01-06 05:04:00,
2013-01-06 00:05:00,32.7,25.7,30.22,West,278,0.0,1.0,75,0.00,,---,0.00,VWS V13.01,2013-01-06 05:05:00,
2013-01-06 00:06:00,32.8,25.8,30.21,West,278,1.0,2.0,75,0.00,,---,0.00,VWS V13.01,2013-01-06 05:06:00,
2013-01-06 00:07:00,32.8,25.8,30.21,West,278,1.0,2.0,75,0.00,,---,0.00,VWS V13.01,2013-01-06 05:07:00,
2013-01-06 00:08:00,32.8,25.8,30.21,West,278,2.0,2.0,75,0.00,,---,0.00,VWS V13.01,2013-01-06 05:08:00,
2013-01-06 00:09:00,32.8,25.8,30.21,West,278,0.0,2.0,75,0.00,,---,0.00,VWS V13.01,2013-01-06 05:09:00,
2013-01-06 00:10:00,32.8,25.8,30.21,West,278,1.0,2.0,75,0.00,,---,0.00,VWS V13.01,2013-01-06 05:10:00,
2013-01-06 00:11:00,32.9,25.9,30.21,West,278,2.0,3.0,75,0.00,,---,0.00,VWS V13.01,2013-01-06 05:11:00,
2013-01-06 00:12:00,32.9,25.5,30.21,West,278,2.0,3.0,74,0.00,,---,0.00,VWS V13.01,2013-01-06 05:12:00,
2013-01-06 00:13:00,32.9,25.5,30.21,West,278,2.0,3.0,74,0.00,,---,0.00,VWS V13.01,2013-01-06 05:13:00,
2013-01-06 00:14:00,32.9,25.5,30.21,West,278,0.0,2.0,74,0.00,,---,0.00,VWS V13.01,2013-01-06 05:14:00,
2013-01-06 00:15:00,33.0,25.6,30.22,West,278,1.0,3.0,74,0.00,,---,0.00,VWS V13.01,2013-01-06 05:15:00,
2013-01-06 00:16:00,33.0,25.6,30.22,West,278,2.0,2.0,74,0.00,,---,0.00,VWS V13.01,2013-01-06 05:16:00,
2013-01-06 00:17:00,33.0,25.6,30.22,West,278,0.0,2.0,74,0.00,,---,0.00,VWS V13.01,2013-01-06 05:17:00,
2013-01-06 00:18:00,33.0,25.6,30.22,West,278,0.0,0.0,74,0.00,,---,0.00,VWS V13.01,2013-01-06 05:18:00,
2013-01-06 00:19:00,33.0,25.6,30.21,West,278,2.0,2.0,74,0.00,,---,0.00,VWS V13.01,2013-01-06 05:19:00,
2013-01-06 00:20:00,33.0,25.6,30.21,West,278,1.0,2.0,74,0.00,,---,0.00,VWS V13.01,2013-01-06 05:20:00,
2013-01-06 00:21:00,33.1,25.7,30.21,West,278,0.0,0.0,74,0.00,,---,0.00,VWS V13.01,2013-01-06 05:21:00,
2013-01-06 00:22:00,33.1,25.7,30.22,West,278,0.0,1.0,74,0.00,,---,0.00,VWS V13.01,2013-01-06 05:22:00,
2013-01-06 00:23:00,33.1,25.7,30.22,West,278,0.0,0.0,74,0.00,,---,0.00,VWS V13.01,2013-01-06 05:23:00,
2013-01-06 00:24:00,33.1,25.7,30.22,West,278,0.0,0.0,74,0.00,,---,0.00,VWS V13.01,2013-01-06 05:24:00,
2013-01-06 00:25:00,33.1,25.7,30.22,West,278,0.0,0.0,74,0.00,,---,0.00,VWS V13.01,2013-01-06 05:25:00,
2013-01-06 00:26:00,33.1,25.7,30.22,West,278,0.0,0.0,74,0.00,,---,0.00,VWS V13.01,2013-01-06 05:26:00,
2013-01-06 00:27:00,33.1,25.7,30.22,West,278,0.0,0.0,74,0.00,,---,0.00,VWS V13.01,2013-01-06 05:27:00,
2013-01-06 00:28:00,33.1,25.7,30.22,West,278,0.0,0.0,74,0.00,,---,0.00,VWS V13.01,2013-01-06 05:28:00,
2013-01-06 00:29:00,33.2,25.8,30.22,West,278,0.0,0.0,74,0.00,,---,0.00,VWS V13.01,2013-01-06 05:29:00,
2013-01-06 00:30:00,33.2,25.8,30.22,West,278,0.0,0.0,74,0.00,,---,0.00,VWS V13.01,2013-01-06 05:30:00,
2013-01-06 00:31:00,33.2,25.8,30.21,West,278,0.0,0.0,74,0.00,,---,0.00,VWS V13.01,2013-01-06 05:31:00,
2013-01-06 00:32:00,33.2,25.8,30.21,West,278,0.0,0.0,74,0.00,,---,0.00,VWS V13.01,2013-01-06 05:32:00,
2013-01-06 00:33:00,33.2,25.8,30.21,West,278,0.0,0.0,74,0.00,,---,0.00,VWS V13.01,2013-01-06 05:33:00,
2013-01-06 00:34:00,33.2,25.8,30.21,West,278,0.0,0.0,74,0.00,,---,0.00,VWS V13.01,2013-01-06 05:34:00,
2013-01-06 00:35:00,33.2,25.8,30.22,West,278,0.0,0.0,74,0.00,,---,0.00,VWS V13.01,2013-01-06 05:35:00,
2013-01-06 00:36:00,33.2,25.8,30.22,West,278,0.0,0.0,74,0.00,,---,0.00,VWS V13.01,2013-01-06 05:36:00,
2013-01-06 00:37:00,33.2,25.8,30.22,West,278,0.0,0.0,74,0.00,,---,0.00,VWS V13.01,2013-01-06 05:37:00,
2013-01-06 00:38:00,33.2,25.8,30.22,West,278,0.0,0.0,74,0.00,,---,0.00,VWS V13.01,2013-01-06 05:38:00,
2013-01-06 00:39:00,33.2,25.8,30.22,West,278,0.0,0.0,74,0.00,,---,0.00,VWS V13.01,2013-01-06 05:39:00,
2013-01-06 00:40:00,33.2,25.8,30.22,West,278,0.0,0.0,74,0.00,,---,0.00,VWS V13.01,2013-01-06 05:40:00,
2013-01-06 00:41:00,33.3,25.9,30.22,West,278,0.0,0.0,74,0.00,,---,0.00,VWS V13.01,2013-01-06 05:41:00,
2013-01-06 00:42:00,33.3,25.9,30.22,West,278,0.0,0.0,74,0.00,,---,0.00,VWS V13.01,2013-01-06 05:42:00,
2013-01-06 00:43:00,33.3,25.9,30.22,West,278,0.0,0.0,74,0.00,,---,0.00,VWS V13.01,2013-01-06 05:43:00,
2013-01-06 00:45:00,33.3,25.6,30.22,West,278,4.0,4.0,73,0.00,,---,0.00,VWS V13.01,2013-01-06 05:45:00,
2013-01-06 00:50:00,33.4,25.7,30.22,West,278,1.0,3.0,73,0.00,,---,0.00,VWS V13.01,2013-01-06 05:50:00,
2013-01-06 00:55:00,33.5,25.8,30.22,West,278,0.0,0.0,73,0.00,,---,0.00,VWS V13.01,2013-01-06 05:55:00,
2013-01-06 01:00:00,33.7,26.0,30.22,West,278,0.0,0.0,73,0.00,,---,0.00,VWS V13.01,2013-01-06 06:00:00,
2013-01-06 01:05:00,33.7,26.0,30.22,West,278,0.0,0.0,73,0.00,,---,0.00,VWS V13.01,2013-01-06 06:05:00,
2013-01-06 01:10:00,33.8,26.1,30.22,West,278,0.0,0.0,73,0.00,,---,0.00,VWS V13.01,2013-01-06 06:10:00,
2013-01-06 01:15:00,33.8,26.1,30.22,West,278,0.0,0.0,73,0.00,,---,0.00,VWS V13.01,2013-01-06 06:15:00,
2013-01-06 01:20:00,33.8,26.1,30.22,West,278,0.0,0.0,73,0.00,,---,0.00,VWS V13.01,2013-01-06 06:20:00,
2013-01-06 01:25:00,33.8,26.1,30.22,West,278,0.0,0.0,73,0.00,,---,0.00,VWS V13.01,2013-01-06 06:25:00,
2013-01-06 01:30:00,33.9,25.8,30.22,West,278,0.0,0.0,72,0.00,,---,0.00,VWS V13.01,2013-01-06 06:30:00,
2013-01-06 01:35:00,34.0,25.9,30.22,West,278,0.0,0.0,72,0.00,,---,0.00,VWS V13.01,2013-01-06 06:35:00,
2013-01-06 01:40:00,34.0,25.9,30.21,West,278,0.0,0.0,72,0.00,,---,0.00,VWS V13.01,2013-01-06 06:40:00,
2013-01-06 01:45:00,34.0,25.9,30.21,West,278,0.0,0.0,72,0.00,,---,0.00,VWS V13.01,2013-01-06 06:45:00,
2013-01-06 01:50:00,34.1,26.0,30.22,West,278,0.0,0.0,72,0.00,,---,0.00,VWS V13.01,2013-01-06 06:50:00,
2013-01-06 01:55:00,34.1,26.0,30.21,West,278,0.0,0.0,72,0.00,,---,0.00,VWS V13.01,2013-01-06 06:55:00,
2013-01-06 02:00:00,34.1,26.0,30.20,West,278,0.0,0.0,72,0.00,,---,0.00,VWS V13.01,2013-01-06 07:00:00,
2013-01-06 02:05:00,34.1,26.0,30.20,West,278,2.0,2.0,72,0.00,,---,0.00,VWS V13.01,2013-01-06 07:05:00,
2013-01-06 02:10:00,34.2,26.5,30.21,SW,224,1.0,2.0,73,0.00,,---,0.00,VWS V13.01,2013-01-06 07:10:00,
2013-01-06 02:15:00,34.3,27.2,30.21,SW,215,2.0,2.0,75,0.00,,---,0.00,VWS V13.01,2013-01-06 07:15:00,
2013-01-06 02:20:00,34.3,28.5,30.21,SW,225,2.0,2.0,79,0.00,,---,0.00,VWS V13.01,2013-01-06 07:20:00,
2013-01-06 02:25:00,34.2,29.0,30.22,SW,225,1.0,2.0,81,0.00,,---,0.00,VWS V13.01,2013-01-06 07:25:00,
2013-01-06 02:30:00,34.0,29.4,30.22,SW,225,1.0,3.0,83,0.00,,---,0.00,VWS V13.01,2013-01-06 07:30:00,
2013-01-06 02:35:00,33.9,29.6,30.22,SW,221,1.0,1.0,84,0.00,,---,0.00,VWS V13.01,2013-01-06 07:35:00,
2013-01-06 02:40:00,33.7,30.0,30.22,SW,222,3.0,3.0,86,0.00,,---,0.00,VWS V13.01,2013-01-06 07:40:00,
2013-01-06 02:45:00,33.6,30.1,30.20,SW,222,2.0,2.0,87,0.00,,---,0.00,VWS V13.01,2013-01-06 07:45:00,
2013-01-06 02:50:00,33.6,30.4,30.20,SW,222,2.0,3.0,88,0.00,,---,0.00,VWS V13.01,2013-01-06 07:50:00,
2013-01-06 02:55:00,33.6,30.7,30.19,SW,222,0.0,0.0,89,0.00,,---,0.00,VWS V13.01,2013-01-06 07:55:00,
2013-01-06 03:00:00,33.6,30.7,30.19,SW,222,1.0,2.0,89,0.00,,---,0.00,VWS V13.01,2013-01-06 08:00:00,
2013-01-06 03:05:00,33.5,30.9,30.18,SW,220,0.0,0.0,90,0.00,,---,0.00,VWS V13.01,2013-01-06 08:05:00,
2013-01-06 03:10:00,33.6,31.0,30.18,SW,220,2.0,2.0,90,0.00,,---,0.00,VWS V13.01,2013-01-06 08:10:00,
2013-01-06 03:15:00,33.6,31.3,30.18,SW,220,0.0,0.0,91,0.00,,---,0.00,VWS V13.01,2013-01-06 08:15:00,
2013-01-06 03:20:00,33.6,31.3,30.17,SW,220,3.0,3.0,91,0.00,,---,0.00,VWS V13.01,2013-01-06 08:20:00,
2013-01-06 03:25:00,33.7,31.4,30.17,SW,220,1.0,1.0,91,0.00,,---,0.00,VWS V13.01,2013-01-06 08:25:00,
2013-01-06 03:30:00,33.7,31.6,30.17,SW,217,0.0,0.0,92,0.00,,---,0.00,VWS V13.01,2013-01-06 08:30:00,
2013-01-06 03:35:00,33.8,31.7,30.17,SW,217,1.0,3.0,92,0.00,,---,0.00,VWS V13.01,2013-01-06 08:35:00,
2013-01-06 03:40:00,33.8,31.7,30.16,SW,217,0.0,0.0,92,0.00,,---,0.00,VWS V13.01,2013-01-06 08:40:00,
2013-01-06 03:45:00,33.9,31.8,30.16,SW,217,0.0,1.0,92,0.00,,---,0.00,VWS V13.01,2013-01-06 08:45:00,
2013-01-06 03:50:00,33.9,31.8,30.16,SW,217,2.0,3.0,92,0.00,,---,0.00,VWS V13.01,2013-01-06 08:50:00,
2013-01-06 03:55:00,33.9,31.8,30.15,SW,217,0.0,0.0,92,0.00,,---,0.00,VWS V13.01,2013-01-06 08:55:00,
2013-01-06 04:00:00,33.9,31.8,30.15,SW,217,2.0,2.0,92,0.00,,---,0.00,VWS V13.01,2013-01-06 09:00:00,
2013-01-06 04:05:00,33.9,31.8,30.14,SW,217,0.0,0.0,92,0.00,,---,0.00,VWS V13.01,2013-01-06 09:05:00,
2013-01-06 04:10:00,33.8,31.7,30.14,SW,217,0.0,0.0,92,0.00,,---,0.00,VWS V13.01,2013-01-06 09:10:00,
2013-01-06 04:15:00,33.8,32.0,30.15,SW,217,0.0,0.0,93,0.00,,---,0.00,VWS V13.01,2013-01-06 09:15:00,
2013-01-06 04:20:00,33.9,32.1,30.14,SW,217,0.0,0.0,93,0.00,,---,0.00,VWS V13.01,2013-01-06 09:20:00,
2013-01-06 04:25:00,33.8,32.0,30.14,SW,217,0.0,1.0,93,0.00,,---,0.00,VWS V13.01,2013-01-06 09:25:00,
2013-01-06 04:30:00,33.8,32.0,30.14,SW,217,0.0,0.0,93,0.00,,---,0.00,VWS V13.01,2013-01-06 09:30:00,
2013-01-06 04:35:00,33.8,33.5,30.14,SW,217,0.0,0.0,99,0.00,,---,0.00,VWS V13.01,2013-01-06 09:35:00,
2013-01-06 04:40:00,33.8,32.0,30.14,SW,217,2.0,2.0,93,0.00,,---,0.00,VWS V13.01,2013-01-06 09:40:00,
2013-01-06 04:45:00,33.8,33.8,30.14,SW,217,1.0,1.0,100,0.00,,---,0.00,VWS V13.01,2013-01-06 09:45:00,
2013-01-06 04:50:00,33.8,32.0,30.14,SW,217,1.0,1.0,93,0.00,,---,0.00,VWS V13.01,2013-01-06 09:50:00,
2013-01-06 04:55:00,33.9,32.1,30.13,SW,217,0.0,0.0,93,0.00,,---,0.00,VWS V13.01,2013-01-06 09:55:00,
2013-01-06 05:00:00,33.9,32.1,30.14,SW,217,0.0,0.0,93,0.00,,---,0.00,VWS V13.01,2013-01-06 10:00:00,
2013-01-06 05:05:00,33.9,32.1,30.13,SW,217,0.0,0.0,93,0.00,,---,0.00,VWS V13.01,2013-01-06 10:05:00,
2013-01-06 05:10:00,33.9,32.1,30.13,SW,217,0.0,0.0,93,0.00,,---,0.00,VWS V13.01,2013-01-06 10:10:00,
2013-01-06 05:15:00,33.9,32.1,30.13,SW,217,0.0,0.0,93,0.00,,---,0.00,VWS V13.01,2013-01-06 10:15:00,
2013-01-06 05:20:00,33.9,32.1,30.12,SW,217,0.0,0.0,93,0.00,,---,0.00,VWS V13.01,2013-01-06 10:20:00,
2013-01-06 05:25:00,33.8,32.0,30.13,SW,217,0.0,0.0,93,0.00,,---,0.00,VWS V13.01,2013-01-06 10:25:00,
2013-01-06 05:30:00,33.8,32.0,30.12,SW,217,0.0,0.0,93,0.00,,---,0.00,VWS V13.01,2013-01-06 10:30:00,
2013-01-06 05:35:00,33.8,32.0,30.13,SW,217,0.0,0.0,93,0.00,,---,0.00,VWS V13.01,2013-01-06 10:35:00,
2013-01-06 05:40:00,33.8,32.0,30.12,SW,217,0.0,0.0,93,0.00,,---,0.00,VWS V13.01,2013-01-06 10:40:00,
2013-01-06 05:45:00,33.8,32.0,30.12,SW,217,0.0,0.0,93,0.00,,---,0.00,VWS V13.01,2013-01-06 10:45:00,
2013-01-06 05:50:00,33.8,32.0,30.12,SW,217,0.0,0.0,93,0.00,,---,0.00,VWS V13.01,2013-01-06 10:50:00,
2013-01-06 05:55:00,33.8,32.0,30.11,SW,217,0.0,0.0,93,0.00,,---,0.00,VWS V13.01,2013-01-06 10:55:00,
2013-01-06 06:00:00,33.8,32.3,30.12,SW,217,0.0,0.0,94,0.00,,---,0.00,VWS V13.01,2013-01-06 11:00:00,
2013-01-06 06:05:00,33.8,32.3,30.11,SW,217,0.0,0.0,94,0.00,,---,0.00,VWS V13.01,2013-01-06 11:05:00,
2013-01-06 06:10:00,33.9,32.4,30.12,SW,217,0.0,0.0,94,0.00,,---,0.00,VWS V13.01,2013-01-06 11:10:00,
2013-01-06 06:15:00,33.8,32.3,30.11,SW,217,0.0,0.0,94,0.00,,---,0.00,VWS V13.01,2013-01-06 11:15:00,
2013-01-06 06:20:00,33.9,32.4,30.11,SW,217,0.0,0.0,94,0.00,,---,0.00,VWS V13.01,2013-01-06 11:20:00,
2013-01-06 06:25:00,33.8,32.3,30.11,SW,217,0.0,0.0,94,0.00,,---,0.00,VWS V13.01,2013-01-06 11:25:00,
2013-01-06 06:30:00,33.8,32.3,30.11,SW,217,0.0,0.0,94,0.00,,---,0.00,VWS V13.01,2013-01-06 11:30:00,
2013-01-06 06:35:00,33.9,32.4,30.11,SW,217,0.0,0.0,94,0.00,,---,0.00,VWS V13.01,2013-01-06 11:35:00,
2013-01-06 06:40:00,33.9,32.4,30.11,SW,217,0.0,0.0,94,0.00,,---,0.00,VWS V13.01,2013-01-06 11:40:00,
2013-01-06 06:45:00,33.9,32.4,30.10,SW,217,0.0,0.0,94,0.00,,---,0.00,VWS V13.01,2013-01-06 11:45:00,
2013-01-06 06:50:00,34.0,32.5,30.10,SW,217,0.0,0.0,94,0.00,,---,0.00,VWS V13.01,2013-01-06 11:50:00,
2013-01-06 06:55:00,34.0,32.5,30.10,SW,217,0.0,2.0,94,0.00,,---,0.00,VWS V13.01,2013-01-06 11:55:00,
2013-01-06 07:00:00,34.1,32.6,30.11,SW,217,0.0,0.0,94,0.00,,---,0.00,VWS V13.01,2013-01-06 12:00:00,
2013-01-06 07:05:00,34.1,32.6,30.10,SW,217,0.0,0.0,94,0.00,,---,0.00,VWS V13.01,2013-01-06 12:05:00,
2013-01-06 07:10:00,34.2,32.7,30.11,SW,217,0.0,0.0,94,0.00,,---,0.00,VWS V13.01,2013-01-06 12:10:00,
2013-01-06 07:15:00,34.2,32.7,30.11,SW,217,0.0,0.0,94,0.00,,---,0.00,VWS V13.01,2013-01-06 12:15:00,
2013-01-06 07:20:00,34.2,32.7,30.10,SW,217,0.0,0.0,94,0.00,,---,0.00,VWS V13.01,2013-01-06 12:20:00,
2013-01-06 07:25:00,34.1,32.6,30.10,SW,217,0.0,0.0,94,0.00,,---,0.00,VWS V13.01,2013-01-06 12:25:00,
2013-01-06 07:30:00,34.1,32.6,30.10,SW,217,0.0,0.0,94,0.00,,---,0.00,VWS V13.01,2013-01-06 12:30:00,
2013-01-06 07:35:00,34.1,32.6,30.10,SW,217,0.0,0.0,94,0.00,,---,0.00,VWS V13.01,2013-01-06 12:35:00,
2013-01-06 07:40:00,34.1,32.6,30.11,SW,217,0.0,0.0,94,0.00,,---,0.00,VWS V13.01,2013-01-06 12:40:00,
2013-01-06 07:45:00,34.1,32.6,30.11,SW,217,0.0,1.0,94,0.00,,---,0.00,VWS V13.01,2013-01-06 12:45:00,
2013-01-06 07:50:00,34.1,32.6,30.11,SW,217,0.0,0.0,94,0.00,,---,0.00,VWS V13.01,2013-01-06 12:50:00,
2013-01-06 07:55:00,34.2,32.7,30.11,SW,217,0.0,0.0,94,0.00,,---,0.00,VWS V13.01,2013-01-06 12:55:00,
2013-01-06 08:00:00,34.2,32.7,30.11,SW,217,0.0,0.0,94,0.00,,---,0.00,VWS V13.01,2013-01-06 13:00:00,
2013-01-06 08:05:00,34.4,32.9,30.11,SW,217,0.0,0.0,94,0.00,,---,0.00,VWS V13.01,2013-01-06 13:05:00,
2013-01-06 08:10:00,34.6,33.0,30.11,SW,217,0.0,0.0,94,0.00,,---,0.00,VWS V13.01,2013-01-06 13:10:00,
2013-01-06 08:15:00,34.8,33.2,30.11,SW,217,0.0,0.0,94,0.00,,---,0.00,VWS V13.01,2013-01-06 13:15:00,
2013-01-06 08:20:00,35.1,33.5,30.11,SW,217,0.0,0.0,94,0.00,,---,0.00,VWS V13.01,2013-01-06 13:20:00,
2013-01-06 08:25:00,35.3,33.8,30.11,SW,217,0.0,0.0,94,0.00,,---,0.00,VWS V13.01,2013-01-06 13:25:00,
2013-01-06 08:30:00,35.4,33.8,30.11,SW,217,0.0,0.0,94,0.00,,---,0.00,VWS V13.01,2013-01-06 13:30:00,
2013-01-06 08:35:00,35.5,34.0,30.11,SW,217,0.0,0.0,94,0.00,,---,0.00,VWS V13.01,2013-01-06 13:35:00,
2013-01-06 08:40:00,35.6,34.0,30.11,SW,217,0.0,0.0,94,0.00,,---,0.00,VWS V13.01,2013-01-06 13:40:00,
2013-01-06 08:45:00,35.7,34.2,30.11,SW,217,0.0,0.0,94,0.00,,---,0.00,VWS V13.01,2013-01-06 13:45:00,
2013-01-06 08:50:00,36.0,34.4,30.10,West,269,0.0,2.0,94,0.00,,---,0.00,VWS V13.01,2013-01-06 13:50:00,
2013-01-06 08:54:00,36.1,34.5,30.10,West,272,0.0,0.0,94,0.00,,---,0.01,VWS V13.01,2013-01-06 13:54:00,
2013-01-06 09:00:00,36.3,34.5,30.11,NW,305,4.0,5.0,93,0.01,,---,0.01,VWS V13.01,2013-01-06 14:00:00,
2013-01-06 09:04:00,36.5,34.7,30.11,NW,305,0.0,0.0,93,0.02,,---,0.02,VWS V13.01,2013-01-06 14:04:00,
2013-01-06 09:09:00,36.8,35.0,30.10,NW,305,2.0,2.0,93,0.02,,---,0.02,VWS V13.01,2013-01-06 14:09:00,
2013-01-06 09:15:00,37.0,35.2,30.10,NW,305,0.0,3.0,93,0.03,,---,0.03,VWS V13.01,2013-01-06 14:15:00,
2013-01-06 09:20:00,37.1,35.0,30.10,NW,305,2.0,3.0,92,0.03,,---,0.04,VWS V13.01,2013-01-06 14:20:00,
2013-01-06 09:25:00,37.2,34.8,30.10,NW,305,0.0,3.0,91,0.04,,---,0.04,VWS V13.01,2013-01-06 14:25:00,
2013-01-06 09:29:00,37.3,34.9,30.10,NW,305,0.0,1.0,91,0.04,,---,0.04,VWS V13.01,2013-01-06 14:29:00,
2013-01-06 09:35:00,37.4,35.0,30.10,NW,305,1.0,2.0,91,0.04,,---,0.04,VWS V13.01,2013-01-06 14:35:00,
2013-01-06 09:39:00,37.5,35.1,30.10,NW,305,0.0,0.0,91,0.04,,---,0.04,VWS V13.01,2013-01-06 14:39:00,
2013-01-06 09:44:00,37.8,35.4,30.10,NW,305,0.0,0.0,91,0.05,,---,0.05,VWS V13.01,2013-01-06 14:44:00,
2013-01-06 09:50:00,38.0,35.3,30.10,NW,305,0.0,1.0,90,0.05,,---,0.05,VWS V13.01,2013-01-06 14:50:00,
2013-01-06 09:55:00,38.2,35.5,30.10,NW,305,0.0,0.0,90,0.05,,---,0.06,VWS V13.01,2013-01-06 14:55:00,
2013-01-06 10:00:00,38.4,35.7,30.10,NW,305,0.0,0.0,90,0.05,,---,0.06,VWS V13.01,2013-01-06 15:00:00,
2013-01-06 10:05:00,38.8,35.8,30.10,WNW,288,2.0,2.0,89,0.04,,---,0.06,VWS V13.01,2013-01-06 15:05:00,
2013-01-06 10:10:00,39.1,36.1,30.10,West,259,0.0,0.0,89,0.04,,---,0.06,VWS V13.01,2013-01-06 15:10:00,
2013-01-06 10:15:00,39.4,36.2,30.09,WNW,293,3.0,3.0,88,0.04,,---,0.06,VWS V13.01,2013-01-06 15:15:00,
2013-01-06 10:19:00,39.7,36.4,30.09,WSW,240,1.0,4.0,88,0.04,,---,0.07,VWS V13.01,2013-01-06 15:19:00,
2013-01-06 10:24:00,39.9,36.3,30.09,WSW,246,2.0,4.0,87,0.03,,---,0.07,VWS V13.01,2013-01-06 15:24:00,
2013-01-06 10:29:00,40.0,36.5,30.09,WNW,285,2.0,5.0,87,0.04,,---,0.08,VWS V13.01,2013-01-06 15:29:00,
2013-01-06 10:34:00,40.0,36.2,30.09,West,273,2.0,2.0,86,0.04,,---,0.08,VWS V13.01,2013-01-06 15:34:00,
2013-01-06 10:39:00,40.0,36.5,30.08,WSW,246,0.0,2.0,87,0.04,,---,0.08,VWS V13.01,2013-01-06 15:39:00,
2013-01-06 10:44:00,40.1,36.5,30.08,WNW,303,1.0,2.0,87,0.03,,---,0.08,VWS V13.01,2013-01-06 15:44:00,
2013-01-06 10:49:00,40.3,38.2,30.08,NW,304,2.0,2.0,92,0.03,,---,0.08,VWS V13.01,2013-01-06 15:49:00,
2013-01-06 10:54:00,40.5,36.7,30.08,NW,305,0.0,4.0,86,0.03,,---,0.08,VWS V13.01,2013-01-06 15:54:00,
2013-01-06 10:59:00,40.8,36.9,30.08,West,279,3.0,5.0,86,0.02,,---,0.08,VWS V13.01,2013-01-06 15:59:00,
2013-01-06 11:04:00,41.1,37.2,30.07,WNW,288,0.0,0.0,86,0.02,,---,0.08,VWS V13.01,2013-01-06 16:04:00,
2013-01-06 11:09:00,41.5,37.3,30.07,West,269,4.0,4.0,85,0.03,,---,0.09,VWS V13.01,2013-01-06 16:09:00,
2013-01-06 11:14:00,41.7,37.2,30.06,WNW,297,7.0,7.0,84,0.03,,---,0.09,VWS V13.01,2013-01-06 16:14:00,
2013-01-06 11:19:00,42.0,37.5,30.06,West,260,1.0,3.0,84,0.02,,---,0.09,VWS V13.01,2013-01-06 16:19:00,
2013-01-06 11:24:00,42.3,37.5,30.06,WSW,248,2.0,3.0,83,0.02,,---,0.09,VWS V13.01,2013-01-06 16:24:00,
2013-01-06 11:29:00,42.5,37.4,30.05,WNW,298,2.0,4.0,82,0.01,,---,0.09,VWS V13.01,2013-01-06 16:29:00,
2013-01-06 11:34:00,42.7,37.6,30.05,West,261,0.0,1.0,82,0.01,,---,0.09,VWS V13.01,2013-01-06 16:34:00,
2013-01-06 11:39:00,43.0,37.6,30.05,NW,312,3.0,7.0,81,0.01,,---,0.09,VWS V13.01,2013-01-06 16:39:00,
2013-01-06 11:44:00,43.2,37.5,30.04,WNW,300,5.0,5.0,80,0.01,,---,0.09,VWS V13.01,2013-01-06 16:44:00,
2013-01-06 11:49:00,43.3,37.2,30.04,WSW,254,4.0,4.0,79,0.01,,---,0.09,VWS V13.01,2013-01-06 16:49:00,
2013-01-06 11:54:00,43.5,37.1,30.04,WNW,291,0.0,0.0,78,0.01,,---,0.09,VWS V13.01,2013-01-06 16:54:00,
2013-01-06 11:59:00,43.7,37.3,30.03,WNW,297,1.0,6.0,78,0.01,,---,0.09,VWS V13.01,2013-01-06 16:59:00,
2013-01-06 12:04:00,43.9,37.5,30.03,SW,225,4.0,6.0,78,0.01,,---,0.09,VWS V13.01,2013-01-06 17:04:00,
2013-01-06 12:09:00,44.3,38.2,30.02,SSW,202,3.0,3.0,79,0.00,,---,0.09,VWS V13.01,2013-01-06 17:09:00,
2013-01-06 12:14:00,44.6,38.2,30.02,West,273,3.0,5.0,78,0.00,,---,0.09,VWS V13.01,2013-01-06 17:14:00,
2013-01-06 12:19:00,44.9,38.1,30.02,West,273,0.0,0.0,77,0.00,,---,0.09,VWS V13.01,2013-01-06 17:19:00,
2013-01-06 12:24:00,45.2,37.8,30.01,WSW,243,5.0,5.0,75,0.00,,---,0.09,VWS V13.01,2013-01-06 17:24:00,
2013-01-06 12:29:00,45.4,37.6,30.01,WSW,242,1.0,3.0,74,0.00,,---,0.09,VWS V13.01,2013-01-06 17:29:00,
2013-01-06 12:34:00,45.6,37.5,30.01,SSW,211,4.0,5.0,73,0.00,,---,0.09,VWS V13.01,2013-01-06 17:34:00,
2013-01-06 12:39:00,45.8,37.7,30.01,SW,236,4.0,8.0,73,0.00,,---,0.09,VWS V13.01,2013-01-06 17:39:00,
2013-01-06 12:44:00,45.9,38.1,30.01,SW,233,2.0,4.0,74,0.00,,---,0.09,VWS V13.01,2013-01-06 17:44:00,
2013-01-06 12:49:00,46.1,37.6,30.01,West,259,2.0,2.0,72,0.00,,---,0.09,VWS V13.01,2013-01-06 17:49:00,
2013-01-06 12:54:00,46.3,38.1,30.01,WSW,248,0.0,0.0,73,0.00,,---,0.09,VWS V13.01,2013-01-06 17:54:00,
2013-01-06 12:59:00,46.7,38.2,30.01,West,267,2.0,3.0,72,0.00,,---,0.09,VWS V13.01,2013-01-06 17:59:00,
2013-01-06 13:04:00,46.9,38.0,30.01,NW,311,3.0,4.0,71,0.00,,---,0.09,VWS V13.01,2013-01-06 18:04:00,
2013-01-06 13:09:00,47.1,37.1,30.00,NW,313,3.0,5.0,68,0.00,,---,0.09,VWS V13.01,2013-01-06 18:09:00,
2013-01-06 13:14:00,47.3,37.3,30.00,West,273,3.0,6.0,68,0.00,,---,0.09,VWS V13.01,2013-01-06 18:14:00,
2013-01-06 13:19:00,47.3,35.8,30.00,West,278,1.0,10.0,64,0.00,,---,0.09,VWS V13.01,2013-01-06 18:19:00,
2013-01-06 13:24:00,47.4,36.2,30.00,SW,216,1.0,5.0,65,0.00,,---,0.09,VWS V13.01,2013-01-06 18:24:00,
2013-01-06 13:29:00,47.5,35.9,29.99,NW,322,5.0,5.0,64,0.00,,---,0.09,VWS V13.01,2013-01-06 18:29:00,
2013-01-06 13:34:00,47.6,35.6,29.99,NW,315,3.0,3.0,63,0.00,,---,0.09,VWS V13.01,2013-01-06 18:34:00,
2013-01-06 13:39:00,47.8,35.8,29.99,West,278,5.0,5.0,63,0.00,,---,0.09,VWS V13.01,2013-01-06 18:39:00,
2013-01-06 13:44:00,47.8,35.4,29.99,WNW,297,0.0,3.0,62,0.00,,---,0.09,VWS V13.01,2013-01-06 18:44:00,
2013-01-06 13:49:00,47.9,35.1,29.99,NW,311,0.0,3.0,61,0.00,,---,0.09,VWS V13.01,2013-01-06 18:49:00,
2013-01-06 13:54:00,47.8,35.4,29.99,NW,322,2.0,7.0,62,0.00,,---,0.09,VWS V13.01,2013-01-06 18:54:00,
2013-01-06 13:59:00,47.8,35.0,29.99,WNW,291,0.0,7.0,61,0.00,,---,0.09,VWS V13.01,2013-01-06 18:59:00,
2013-01-06 14:04:00,48.0,34.8,29.98,West,271,3.0,6.0,60,0.00,,---,0.09,VWS V13.01,2013-01-06 19:04:00,
2013-01-06 14:09:00,48.1,34.9,29.98,WNW,284,0.0,1.0,60,0.00,,---,0.09,VWS V13.01,2013-01-06 19:09:00,
2013-01-06 14:14:00,48.2,34.6,29.98,WNW,302,7.0,7.0,59,0.00,,---,0.09,VWS V13.01,2013-01-06 19:14:00,
2013-01-06 14:19:00,48.3,34.2,29.98,NW,307,2.0,8.0,58,0.00,,---,0.09,VWS V13.01,2013-01-06 19:19:00,
2013-01-06 14:24:00,48.5,34.0,29.98,SW,223,3.0,6.0,57,0.00,,---,0.09,VWS V13.01,2013-01-06 19:24:00,
2013-01-06 14:29:00,48.6,34.1,29.98,WNW,300,4.0,4.0,57,0.00,,---,0.09,VWS V13.01,2013-01-06 19:29:00,
2013-01-06 14:34:00,48.8,34.3,29.98,WSW,248,4.0,4.0,57,0.00,,---,0.09,VWS V13.01,2013-01-06 19:34:00,
2013-01-06 14:39:00,49.0,34.0,29.98,WNW,288,5.0,5.0,56,0.00,,---,0.09,VWS V13.01,2013-01-06 19:39:00,
2013-01-06 14:44:00,49.2,34.2,29.98,West,273,3.0,9.0,56,0.00,,---,0.09,VWS V13.01,2013-01-06 19:44:00,
2013-01-06 14:49:00,49.2,33.7,29.98,NW,310,0.0,5.0,55,0.00,,---,0.09,VWS V13.01,2013-01-06 19:49:00,
2013-01-06 14:54:00,49.1,34.1,29.98,NW,306,0.0,0.0,56,0.00,,---,0.09,VWS V13.01,2013-01-06 19:54:00,
2013-01-06 14:59:00,49.0,33.5,29.98,NW,306,2.0,2.0,55,0.00,,---,0.09,VWS V13.01,2013-01-06 19:59:00,
2013-01-06 15:05:00,49.0,33.5,29.98,SSW,202,3.0,5.0,55,0.00,,---,0.09,VWS V13.01,2013-01-06 20:05:00,
2013-01-06 15:10:00,48.8,33.4,29.98,WSW,248,3.0,3.0,55,0.00,,---,0.09,VWS V13.01,2013-01-06 20:10:00,
2013-01-06 15:11:00,48.8,33.4,29.98,SW,225,1.0,3.0,55,0.00,,---,0.09,VWS V13.01,2013-01-06 20:11:00,
2013-01-06 15:13:00,48.8,33.4,29.98,SW,225,2.0,2.0,55,0.00,,---,0.09,VWS V13.01,2013-01-06 20:13:00,
2013-01-06 15:18:00,48.6,33.2,29.97,WSW,248,4.0,4.0,55,0.00,,---,0.09,VWS V13.01,2013-01-06 20:18:00,
2013-01-06 15:23:00,48.5,32.2,29.97,NW,324,0.0,0.0,53,0.00,,---,0.09,VWS V13.01,2013-01-06 20:23:00,
2013-01-06 15:28:00,48.3,32.0,29.97,WSW,252,4.0,4.0,53,0.00,,---,0.09,VWS V13.01,2013-01-06 20:28:00,
2013-01-06 15:33:00,48.1,32.3,29.97,WNW,302,3.0,4.0,54,0.00,,---,0.09,VWS V13.01,2013-01-06 20:33:00,
2013-01-06 15:38:00,47.9,32.1,29.98,WNW,288,0.0,0.0,54,0.00,,---,0.09,VWS V13.01,2013-01-06 20:38:00,
2013-01-06 15:43:00,47.7,32.3,29.97,WNW,284,3.0,3.0,55,0.00,,---,0.09,VWS V13.01,2013-01-06 20:43:00,
2013-01-06 15:48:00,47.6,32.7,29.98,NW,312,0.0,0.0,56,0.00,,---,0.09,VWS V13.01,2013-01-06 20:48:00,
2013-01-06 15:53:00,47.6,32.7,29.97,NW,312,0.0,0.0,56,0.00,,---,0.09,VWS V13.01,2013-01-06 20:53:00,
2013-01-06 15:58:00,47.5,32.6,29.97,WSW,257,3.0,3.0,56,0.00,,---,0.09,VWS V13.01,2013-01-06 20:58:00,
2013-01-06 16:01:00,47.5,33.0,29.97,West,261,3.0,5.0,57,0.00,,---,0.09,VWS V13.01,2013-01-06 21:01:00,
2013-01-06 16:06:00,47.3,32.4,29.98,West,272,0.0,5.0,56,0.00,,---,0.09,VWS V13.01,2013-01-06 21:06:00,
2013-01-06 16:11:00,47.1,32.2,29.98,West,272,0.0,1.0,56,0.00,,---,0.09,VWS V13.01,2013-01-06 21:11:00,
2013-01-06 16:16:00,46.9,32.5,29.98,WSW,252,4.0,6.0,57,0.00,,---,0.09,VWS V13.01,2013-01-06 21:16:00,
2013-01-06 16:21:00,46.6,32.2,29.98,WSW,251,0.0,0.0,57,0.00,,---,0.09,VWS V13.01,2013-01-06 21:21:00,
2013-01-06 16:26:00,46.3,32.3,29.98,WSW,251,2.0,3.0,58,0.00,,---,0.09,VWS V13.01,2013-01-06 21:26:00,
2013-01-06 16:31:00,46.1,32.2,29.99,SW,221,0.0,0.0,58,0.00,,---,0.09,VWS V13.01,2013-01-06 21:31:00,
2013-01-06 16:36:00,45.8,32.3,29.98,SW,221,0.0,1.0,59,0.00,,---,0.09,VWS V13.01,2013-01-06 21:36:00,
2013-01-06 16:41:00,45.5,32.4,29.99,SW,223,0.0,1.0,60,0.00,,---,0.09,VWS V13.01,2013-01-06 21:41:00,
2013-01-06 16:46:00,45.2,32.6,29.99,West,281,0.0,1.0,61,0.00,,---,0.09,VWS V13.01,2013-01-06 21:46:00,
2013-01-06 16:51:00,44.8,32.2,29.99,West,281,0.0,0.0,61,0.00,,---,0.09,VWS V13.01,2013-01-06 21:51:00,
2013-01-06 16:56:00,44.4,32.2,29.99,West,281,0.0,0.0,62,0.00,,---,0.09,VWS V13.01,2013-01-06 21:56:00,
2013-01-06 17:01:00,44.1,32.3,29.99,West,281,0.0,0.0,63,0.00,,---,0.09,VWS V13.01,2013-01-06 22:01:00,
2013-01-06 17:06:00,43.7,32.0,29.99,West,281,0.0,1.0,63,0.00,,---,0.09,VWS V13.01,2013-01-06 22:06:00,
2013-01-06 17:11:00,43.3,32.0,29.99,West,281,0.0,0.0,64,0.00,,---,0.09,VWS V13.01,2013-01-06 22:11:00,
2013-01-06 17:16:00,42.8,31.9,29.99,West,281,0.0,0.0,65,0.00,,---,0.09,VWS V13.01,2013-01-06 22:16:00,
2013-01-06 17:21:00,42.4,31.5,29.99,West,281,0.0,0.0,65,0.00,,---,0.09,VWS V13.01,2013-01-06 22:21:00,
2013-01-06 17:26:00,42.0,31.5,30.00,West,281,0.0,0.0,66,0.00,,---,0.09,VWS V13.01,2013-01-06 22:26:00,
2013-01-06 17:31:00,41.7,31.6,30.00,West,281,0.0,1.0,67,0.00,,---,0.09,VWS V13.01,2013-01-06 22:31:00,
2013-01-06 17:36:00,41.3,31.5,30.00,West,281,0.0,0.0,68,0.00,,---,0.09,VWS V13.01,2013-01-06 22:36:00,
2013-01-06 17:40:00,41.0,31.3,30.00,West,281,0.0,0.0,68,0.00,,---,0.09,VWS V13.01,2013-01-06 22:40:00,
2013-01-06 17:45:00,40.7,31.3,30.00,West,281,0.0,0.0,69,0.00,,---,0.09,VWS V13.01,2013-01-06 22:45:00,
2013-01-06 17:50:00,40.4,31.4,30.00,West,281,0.0,0.0,70,0.00,,---,0.09,VWS V13.01,2013-01-06 22:50:00,
2013-01-06 17:55:00,40.0,31.0,30.00,West,281,0.0,0.0,70,0.00,,---,0.09,VWS V13.01,2013-01-06 22:55:00,
2013-01-06 18:00:00,39.6,31.0,30.00,West,281,0.0,0.0,71,0.00,,---,0.09,VWS V13.01,2013-01-06 23:00:00,
2013-01-06 18:05:00,39.3,30.7,30.00,West,281,0.0,0.0,71,0.00,,---,0.09,VWS V13.01,2013-01-06 23:05:00,
2013-01-06 18:10:00,38.9,31.0,30.00,West,281,0.0,0.0,73,0.00,,---,0.09,VWS V13.01,2013-01-06 23:10:00,
2013-01-06 18:15:00,38.5,31.0,30.00,West,281,0.0,0.0,74,0.00,,---,0.09,VWS V13.01,2013-01-06 23:15:00,
2013-01-06 18:20:00,38.2,30.7,30.00,West,281,0.0,0.0,74,0.00,,---,0.09,VWS V13.01,2013-01-06 23:20:00,
2013-01-06 18:25:00,37.9,30.4,30.00,West,281,0.0,0.0,74,0.00,,---,0.09,VWS V13.01,2013-01-06 23:25:00,
2013-01-06 18:30:00,37.5,30.3,30.01,West,281,0.0,1.0,75,0.00,,---,0.09,VWS V13.01,2013-01-06 23:30:00,
2013-01-06 18:35:00,37.3,30.4,30.00,West,281,0.0,0.0,76,0.00,,---,0.09,VWS V13.01,2013-01-06 23:35:00,
2013-01-06 18:40:00,37.0,30.5,30.01,West,281,0.0,0.0,77,0.00,,---,0.09,VWS V13.01,2013-01-06 23:40:00,
2013-01-06 18:45:00,36.8,30.6,30.01,West,281,0.0,0.0,78,0.00,,---,0.09,VWS V13.01,2013-01-06 23:45:00,
2013-01-06 18:50:00,36.7,30.5,30.01,West,281,0.0,0.0,78,0.00,,---,0.09,VWS V13.01,2013-01-06 23:50:00,
2013-01-06 18:55:00,36.7,30.8,30.01,West,281,0.0,0.0,79,0.00,,---,0.09,VWS V13.01,2013-01-06 23:55:00,
2013-01-06 19:00:00,36.6,30.7,30.01,West,281,0.0,0.0,79,0.00,,---,0.09,VWS V13.01,2013-01-07 00:00:00,
2013-01-06 19:05:00,36.6,30.7,30.02,West,281,0.0,0.0,79,0.00,,---,0.09,VWS V13.01,2013-01-07 00:05:00,
2013-01-06 19:10:00,36.5,30.6,30.02,West,281,0.0,0.0,79,0.00,,---,0.09,VWS V13.01,2013-01-07 00:10:00,
2013-01-06 19:15:00,36.3,30.4,30.02,West,281,0.0,0.0,79,0.00,,---,0.09,VWS V13.01,2013-01-07 00:15:00,
2013-01-06 19:20:00,36.2,30.6,30.02,West,281,0.0,0.0,80,0.00,,---,0.09,VWS V13.01,2013-01-07 00:20:00,
2013-01-06 19:25:00,36.1,30.2,30.02,West,281,0.0,0.0,79,0.00,,---,0.09,VWS V13.01,2013-01-07 00:25:00,
2013-01-06 19:30:00,35.9,30.0,30.02,West,281,0.0,0.0,79,0.00,,---,0.09,VWS V13.01,2013-01-07 00:30:00,
2013-01-06 19:35:00,35.7,30.1,30.02,West,281,0.0,0.0,80,0.00,,---,0.09,VWS V13.01,2013-01-07 00:35:00,
2013-01-06 19:40:00,35.5,30.0,30.02,West,281,0.0,0.0,80,0.00,,---,0.09,VWS V13.01,2013-01-07 00:40:00,
2013-01-06 19:45:00,35.3,29.8,30.02,West,281,0.0,1.0,80,0.00,,---,0.09,VWS V13.01,2013-01-07 00:45:00,
2013-01-06 19:50:00,35.1,29.9,30.02,West,281,0.0,0.0,81,0.00,,---,0.09,VWS V13.01,2013-01-07 00:50:00,
2013-01-06 19:55:00,35.0,29.8,30.02,West,281,0.0,0.0,81,0.00,,---,0.09,VWS V13.01,2013-01-07 00:55:00,
2013-01-06 20:00:00,34.8,29.9,30.02,West,281,0.0,0.0,82,0.00,,---,0.09,VWS V13.01,2013-01-07 01:00:00,
2013-01-06 20:05:00,34.7,29.8,30.02,West,281,0.0,0.0,82,0.00,,---,0.09,VWS V13.01,2013-01-07 01:05:00,
2013-01-06 20:10:00,34.9,30.3,30.02,West,281,0.0,0.0,83,0.00,,---,0.09,VWS V13.01,2013-01-07 01:10:00,
2013-01-06 20:15:00,35.0,30.4,30.02,West,281,0.0,0.0,83,0.00,,---,0.09,VWS V13.01,2013-01-07 01:15:00,
2013-01-06 20:20:00,35.0,30.4,30.02,West,281,0.0,2.0,83,0.00,,---,0.09,VWS V13.01,2013-01-07 01:20:00,
2013-01-06 20:25:00,35.3,30.7,30.02,West,281,0.0,0.0,83,0.00,,---,0.09,VWS V13.01,2013-01-07 01:25:00,
2013-01-06 20:30:00,35.7,31.0,30.02,West,281,0.0,0.0,83,0.00,,---,0.09,VWS V13.01,2013-01-07 01:30:00,
2013-01-06 20:35:00,36.0,31.4,30.01,West,281,0.0,0.0,83,0.00,,---,0.09,VWS V13.01,2013-01-07 01:35:00,
2013-01-06 20:40:00,36.2,31.2,30.02,West,281,0.0,0.0,82,0.00,,---,0.09,VWS V13.01,2013-01-07 01:40:00,
2013-01-06 20:45:00,36.4,31.4,30.02,West,281,0.0,0.0,82,0.00,,---,0.09,VWS V13.01,2013-01-07 01:45:00,
2013-01-06 20:50:00,36.6,31.3,30.02,West,281,0.0,0.0,81,0.00,,---,0.09,VWS V13.01,2013-01-07 01:50:00,
2013-01-06 20:55:00,36.8,31.5,30.02,West,281,0.0,0.0,81,0.00,,---,0.09,VWS V13.01,2013-01-07 01:55:00,
2013-01-06 21:00:00,36.9,31.6,30.02,West,281,0.0,0.0,81,0.00,,---,0.09,VWS V13.01,2013-01-07 02:00:00,
2013-01-06 21:05:00,37.1,31.5,30.02,West,281,0.0,0.0,80,0.00,,---,0.09,VWS V13.01,2013-01-07 02:05:00,
2013-01-06 21:10:00,37.3,31.7,30.02,West,281,0.0,1.0,80,0.00,,---,0.09,VWS V13.01,2013-01-07 02:10:00,
2013-01-06 21:15:00,37.5,31.9,30.03,West,281,0.0,0.0,80,0.00,,---,0.09,VWS V13.01,2013-01-07 02:15:00,
2013-01-06 21:20:00,37.6,32.0,30.03,West,281,0.0,0.0,80,0.00,,---,0.09,VWS V13.01,2013-01-07 02:20:00,
2013-01-06 21:25:00,37.7,31.8,30.02,West,281,0.0,0.0,79,0.00,,---,0.09,VWS V13.01,2013-01-07 02:25:00,
2013-01-06 21:30:00,37.7,32.1,30.03,West,281,0.0,0.0,80,0.00,,---,0.09,VWS V13.01,2013-01-07 02:30:00,
2013-01-06 21:35:00,37.8,31.9,30.02,West,281,0.0,0.0,79,0.00,,---,0.09,VWS V13.01,2013-01-07 02:35:00,
2013-01-06 21:40:00,37.8,31.6,30.02,West,281,0.0,0.0,78,0.00,,---,0.09,VWS V13.01,2013-01-07 02:40:00,
2013-01-06 21:45:00,37.8,31.6,30.03,West,281,0.0,0.0,78,0.00,,---,0.09,VWS V13.01,2013-01-07 02:45:00,
2013-01-06 21:50:00,37.8,31.6,30.03,West,281,2.0,2.0,78,0.00,,---,0.09,VWS V13.01,2013-01-07 02:50:00,
2013-01-06 21:55:00,37.7,31.5,30.03,West,281,2.0,2.0,78,0.00,,---,0.09,VWS V13.01,2013-01-07 02:55:00,
2013-01-06 22:00:00,37.8,31.2,30.03,West,281,0.0,0.0,77,0.00,,---,0.09,VWS V13.01,2013-01-07 03:00:00,
2013-01-06 22:05:00,37.8,31.2,30.03,West,281,1.0,2.0,77,0.00,,---,0.09,VWS V13.01,2013-01-07 03:05:00,
2013-01-06 22:10:00,37.9,31.4,30.03,West,281,0.0,0.0,77,0.00,,---,0.09,VWS V13.01,2013-01-07 03:10:00,
2013-01-06 22:15:00,38.0,31.4,30.03,West,281,0.0,0.0,77,0.00,,---,0.09,VWS V13.01,2013-01-07 03:15:00,
2013-01-06 22:20:00,38.0,31.4,30.03,West,281,0.0,0.0,77,0.00,,---,0.09,VWS V13.01,2013-01-07 03:20:00,
2013-01-06 22:25:00,38.1,31.5,30.03,West,281,0.0,0.0,77,0.00,,---,0.09,VWS V13.01,2013-01-07 03:25:00,
2013-01-06 22:30:00,38.2,31.3,30.03,West,281,0.0,0.0,76,0.00,,---,0.09,VWS V13.01,2013-01-07 03:30:00,
2013-01-06 22:35:00,38.3,31.4,30.03,West,281,1.0,2.0,76,0.00,,---,0.09,VWS V13.01,2013-01-07 03:35:00,
2013-01-06 22:40:00,38.4,31.5,30.03,West,281,0.0,2.0,76,0.00,,---,0.09,VWS V13.01,2013-01-07 03:40:00,
2013-01-06 22:45:00,38.6,31.7,30.03,West,281,1.0,2.0,76,0.00,,---,0.09,VWS V13.01,2013-01-07 03:45:00,
2013-01-06 22:50:00,38.6,31.7,30.03,West,281,1.0,2.0,76,0.00,,---,0.09,VWS V13.01,2013-01-07 03:50:00,
2013-01-06 22:55:00,38.6,31.7,30.03,West,281,0.0,0.0,76,0.00,,---,0.09,VWS V13.01,2013-01-07 03:55:00,
2013-01-06 23:00:00,38.6,31.7,30.03,West,281,0.0,0.0,76,0.00,,---,0.09,VWS V13.01,2013-01-07 04:00:00,
2013-01-06 23:05:00,38.6,31.7,30.03,West,281,0.0,0.0,76,0.00,,---,0.09,VWS V13.01,2013-01-07 04:05:00,
2013-01-06 23:10:00,38.6,31.4,30.04,West,281,0.0,0.0,75,0.00,,---,0.09,VWS V13.01,2013-01-07 04:10:00,
2013-01-06 23:15:00,38.6,31.7,30.04,West,281,2.0,2.0,76,0.00,,---,0.09,VWS V13.01,2013-01-07 04:15:00,
2013-01-06 23:20:00,38.6,31.7,30.04,West,281,0.0,0.0,76,0.00,,---,0.09,VWS V13.01,2013-01-07 04:20:00,
2013-01-06 23:25:00,38.6,31.7,30.04,West,281,0.0,0.0,76,0.00,,---,0.09,VWS V13.01,2013-01-07 04:25:00,
2013-01-06 23:30:00,38.5,31.6,30.04,West,281,0.0,1.0,76,0.00,,---,0.09,VWS V13.01,2013-01-07 04:30:00,
2013-01-06 23:35:00,38.5,31.6,30.04,West,281,0.0,3.0,76,0.00,,---,0.09,VWS V13.01,2013-01-07 04:35:00,
2013-01-06 23:40:00,38.4,31.5,30.04,West,281,0.0,0.0,76,0.00,,---,0.09,VWS V13.01,2013-01-07 04:40:00,
2013-01-06 23:45:00,38.4,31.5,30.04,West,281,0.0,0.0,76,0.00,,---,0.09,VWS V13.01,2013-01-07 04:45:00,
2013-01-06 23:50:00,38.4,31.5,30.05,West,281,0.0,0.0,76,0.00,,---,0.09,VWS V13.01,2013-01-07 04:50:00,
2013-01-06 23:55:00,38.3,31.4,30.05,West,281,0.0,0.0,76,0.00,,---,0.09,VWS V13.01,2013-01-07 04:55:00,